M/V R.j. Cheramie — WDG3635 — position and weather

sailwx.info

Track history (hours):
 
Tides and Currents Weather Stations Pressure Air Temp Water Temp Dewpoint Dewpoint Depression Visibility Wind Speed Wind Dir Waves Ship Positions

M/V R.j. Cheramie

Owner: D&S Marine Service, LLC R.J. Cheramie, Gray, LA. More information available from US FCC via Universal Licensing System and Coast Guard Vessel Documentation Center.

Last reported at 2018-Feb-24 19:59 UTC. Time now 2018-Feb-25 03:53 UTC.
Position N 29°34' W 094°26'.

Length 280 m; draft 2.7 m.

Type: . MMSI: 367528110.

Date/timePositionNaut miles runAvg speedWind from/ knotsBaromVisibWave heightAir tempDewpointWater temp
2018-Feb-24 19:59N 29°34' W 094°26'1 2.8
2018-Feb-24 19:30N 29°34' W 094°25'0 0.0
2018-Feb-24 18:56N 29°34' W 094°25'0 0.0
2018-Feb-24 18:28N 29°34' W 094°25'0 0.0
2018-Feb-24 17:50N 29°34' W 094°25'0 1.0
2018-Feb-24 17:31N 29°35' W 094°25'0 0.0
2018-Feb-24 17:00N 29°35' W 094°25'0 0.0
2018-Feb-24 16:30N 29°35' W 094°25'0 0.0
2018-Feb-24 16:01N 29°35' W 094°25'1 2.5
2018-Feb-24 15:30N 29°36' W 094°24'0 0.0
2018-Feb-24 14:59N 29°36' W 094°24'1 1.5
2018-Feb-24 14:23N 29°36' W 094°23'4 2.6
2018-Feb-24 12:46N 29°38' W 094°19'1 4.7
2018-Feb-24 12:29N 29°38' W 094°18'2 4.5
2018-Feb-24 12:00N 29°39' W 094°15'2 3.9
2018-Feb-24 11:30N 29°40' W 094°13'2 3.6
2018-Feb-24 11:00N 29°41' W 094°11'2 4.3
2018-Feb-24 10:30N 29°42' W 094°09'2 3.2
2018-Feb-24 10:01N 29°43' W 094°08'0 0.9
2018-Feb-24 09:31N 29°43' W 094°07'0 0.0
2018-Feb-24 09:01N 29°43' W 094°07'0 0.0
2018-Feb-24 08:30N 29°43' W 094°07'0 0.0
2018-Feb-24 08:01N 29°43' W 094°07'0 0.8
2018-Feb-24 07:31N 29°43' W 094°07'2 4.7
2018-Feb-24 07:00N 29°45' W 094°05'2 4.7
2018-Feb-24 06:30N 29°46' W 094°03'2 4.8
2018-Feb-24 06:00N 29°48' W 094°01'2 4.6
2018-Feb-24 05:30N 29°49' W 093°59'0 0.4
2018-Feb-24 05:01N 29°49' W 093°58'0 0.0
2018-Feb-24 04:30N 29°49' W 093°58'0 0.0
2018-Feb-24 04:01N 29°49' W 093°58'0 0.0
2018-Feb-24 03:31N 29°49' W 093°58'0 0.0
2018-Feb-24 03:00N 29°49' W 093°58'1 2.6
2018-Feb-24 02:31N 29°50' W 093°57'3 5.8
2018-Feb-24 02:00N 29°53' W 093°56'3 6.0
2018-Feb-24 01:30N 29°55' W 093°53'3 5.9
2018-Feb-24 01:00N 29°57' W 093°52'2 5.0
2018-Feb-24 00:30N 29°59' W 093°49'3 5.7
2018-Feb-24 00:01N 29°60' W 093°46'3 5.3
2018-Feb-23 23:30N 30°02' W 093°44'2 4.8
2018-Feb-23 23:00N 30°03' W 093°42'2 4.8
2018-Feb-23 22:30N 30°04' W 093°39'2 4.8
2018-Feb-23 22:01N 30°04' W 093°37'2 4.8
2018-Feb-23 21:30N 30°04' W 093°34'6 4.9
2018-Feb-23 20:14N 30°04' W 093°26'1 4.6
2018-Feb-23 20:00N 30°04' W 093°25'3 5.1
2018-Feb-23 19:27N 30°04' W 093°22'3 3.6
2018-Feb-23 18:41N 30°05' W 093°20'1 2.9
2018-Feb-23 18:15N 30°06' W 093°18'2 0.7
2018-Feb-23 15:40N 30°05' W 093°17'0 0.0
2018-Feb-23 15:30N 30°05' W 093°17'0 0.0
2018-Feb-23 14:36N 30°05' W 093°17'26 3.3
2018-Feb-23 06:33N 29°58' W 092°47'0 4.6
2018-Feb-23 06:30N 29°58' W 092°47'24 3.3
2018-Feb-22 23:06N 29°51' W 092°20'0 4.3
2018-Feb-22 23:00N 29°50' W 092°20'2 4.1
2018-Feb-22 22:30N 29°50' W 092°18'2 4.3
2018-Feb-22 21:59N 29°48' W 092°15'2 3.8
2018-Feb-22 21:29N 29°48' W 092°13'1 2.1
2018-Feb-22 20:59N 29°47' W 092°12'1 1.9
2018-Feb-22 20:30N 29°47' W 092°11'1 1.3
2018-Feb-22 20:00N 29°47' W 092°11'2 4.6
2018-Feb-22 19:30N 29°47' W 092°08'2 4.1
2018-Feb-22 19:00N 29°48' W 092°06'2 4.2
2018-Feb-22 18:30N 29°49' W 092°04'2 4.4
2018-Feb-22 18:00N 29°49' W 092°01'3 0.8
2018-Feb-22 13:50N 29°50' W 091°57'2 5.2
2018-Feb-22 13:28N 29°50' W 091°60'2 5.0
2018-Feb-22 13:00N 29°49' W 092°02'2 4.9
2018-Feb-22 12:30N 29°48' W 092°05'2 4.9
2018-Feb-22 12:00N 29°47' W 092°07'3 5.2
2018-Feb-22 11:30N 29°47' W 092°10'2 4.9
2018-Feb-22 11:01N 29°47' W 092°13'2 4.4
2018-Feb-22 10:30N 29°48' W 092°15'2 4.9
2018-Feb-22 10:00N 29°49' W 092°18'2 3.9
2018-Feb-22 09:30N 29°50' W 092°20'2 2.8
2018-Feb-22 08:56N 29°51' W 092°21'36 4.3
2018-Feb-22 00:31N 29°56' W 093°03'0 3.7
2018-Feb-22 00:30N 29°56' W 093°03'16 3.7
2018-Feb-21 20:05N 30°06' W 093°18'2 3.0
2018-Feb-21 19:23N 30°05' W 093°20'1 3.3
2018-Feb-21 19:00N 30°04' W 093°21'0 0.3
2018-Feb-21 18:28N 30°04' W 093°21'0 0.6
2018-Feb-21 18:00N 30°04' W 093°22'2 4.5
2018-Feb-21 17:29N 30°04' W 093°24'3 5.2
2018-Feb-21 17:00N 30°04' W 093°27'3 5.1
2018-Feb-21 16:31N 30°04' W 093°30'3 5.3
2018-Feb-21 16:00N 30°04' W 093°33'3 5.4
2018-Feb-21 15:30N 30°04' W 093°36'3 5.8
2018-Feb-21 15:00N 30°04' W 093°40'3 5.9
2018-Feb-21 14:30N 30°03' W 093°43'3 6.0
2018-Feb-21 14:00N 30°01' W 093°45'3 6.0
2018-Feb-21 13:31N 29°59' W 093°48'3 5.7
2018-Feb-21 13:01N 29°58' W 093°51'3 6.6
2018-Feb-21 12:31N 29°55' W 093°53'3 6.6
2018-Feb-21 12:00N 29°53' W 093°55'3 5.5
2018-Feb-21 11:30N 29°50' W 093°57'2 3.7
2018-Feb-21 11:01N 29°49' W 093°59'0 0.0
2018-Feb-21 10:31N 29°49' W 093°59'0 0.0
2018-Feb-21 10:00N 29°49' W 093°59'0 0.0
2018-Feb-21 09:31N 29°49' W 093°59'0 0.0
2018-Feb-21 09:01N 29°49' W 093°59'0 0.0
2018-Feb-21 08:30N 29°49' W 093°59'0 0.0
2018-Feb-21 08:00N 29°49' W 093°59'0 0.0
2018-Feb-21 07:30N 29°49' W 093°59'0 0.0
2018-Feb-21 07:00N 29°49' W 093°59'0 0.0
2018-Feb-21 06:31N 29°49' W 093°59'1 1.4
2018-Feb-21 06:00N 29°49' W 093°59'3 5.1
2018-Feb-21 05:31N 29°47' W 094°01'3 5.0
2018-Feb-21 05:01N 29°45' W 094°04'2 4.6
2018-Feb-21 04:30N 29°44' W 094°06'2 3.9
2018-Feb-21 04:00N 29°43' W 094°08'2 4.4
2018-Feb-21 03:31N 29°41' W 094°09'2 4.5
2018-Feb-21 03:00N 29°41' W 094°12'1 2.6
2018-Feb-21 02:29N 29°40' W 094°13'2 4.3
2018-Feb-21 02:01N 29°39' W 094°15'3 5.3
2018-Feb-21 01:31N 29°38' W 094°18'3 5.4
2018-Feb-21 00:59N 29°37' W 094°21'2 5.1
2018-Feb-21 00:31N 29°36' W 094°24'2 3.6
2018-Feb-20 23:53N 29°34' W 094°25'9 0.9
2018-Feb-20 14:11N 29°30' W 094°34'0 0.0
2018-Feb-20 13:57N 29°30' W 094°34'0 0.0
2018-Feb-20 13:29N 29°30' W 094°34'0 0.0
2018-Feb-20 13:00N 29°30' W 094°34'0 0.1
2018-Feb-20 11:09N 29°30' W 094°34'0 0.0
2018-Feb-20 10:49N 29°30' W 094°34'0 0.0
2018-Feb-20 09:34N 29°30' W 094°34'0 0.0
2018-Feb-20 09:19N 29°30' W 094°34'1 2.7
2018-Feb-20 08:56N 29°29' W 094°35'2 1.7
2018-Feb-20 08:02N 29°29' W 094°37'1 5.7
2018-Feb-20 07:54N 29°29' W 094°37'2 4.5
2018-Feb-20 07:30N 29°28' W 094°39'2 4.3
2018-Feb-20 07:00N 29°27' W 094°41'0 0.1
2018-Feb-20 06:29N 29°27' W 094°41'10 2.0
2018-Feb-20 01:31N 29°30' W 094°52'0 6.1
2018-Feb-20 01:30N 29°30' W 094°52'3 6.3
2018-Feb-20 01:00N 29°33' W 094°54'3 6.4
2018-Feb-20 00:30N 29°35' W 094°56'3 5.5
2018-Feb-20 00:00N 29°38' W 094°58'3 6.9
2018-Feb-19 23:30N 29°41' W 094°59'4 6.0
2018-Feb-19 22:55N 29°44' W 095°02'4 4.7
2018-Feb-19 22:04N 29°47' W 095°04'0 3.6
2018-Feb-19 21:58N 29°47' W 095°04'0 0.2
2018-Feb-19 20:02N 29°47' W 095°04'1 0.4
2018-Feb-19 16:39N 29°46' W 095°06'0 0.0
2018-Feb-19 16:17N 29°46' W 095°06'0 0.0
2018-Feb-19 15:53N 29°46' W 095°06'0 0.0
2018-Feb-19 15:24N 29°46' W 095°06'0 0.0
2018-Feb-19 15:00N 29°46' W 095°06'1 1.3
2018-Feb-19 14:26N 29°46' W 095°05'1 3.0
2018-Feb-19 14:00N 29°47' W 095°04'2 3.3
2018-Feb-19 13:29N 29°46' W 095°05'0 0.1
2018-Feb-19 12:25N 29°46' W 095°05'2 4.9
2018-Feb-19 12:00N 29°45' W 095°04'2 5.0
2018-Feb-19 11:30N 29°43' W 095°01'3 5.3
2018-Feb-19 11:00N 29°41' W 094°59'3 5.8
2018-Feb-19 10:30N 29°39' W 094°58'3 5.7
2018-Feb-19 10:00N 29°36' W 094°57'3 5.8
2018-Feb-19 09:30N 29°33' W 094°55'3 6.1
2018-Feb-19 09:00N 29°31' W 094°53'3 6.1
2018-Feb-19 08:30N 29°28' W 094°51'3 6.1
2018-Feb-19 07:59N 29°25' W 094°50'3 6.1
2018-Feb-19 07:29N 29°23' W 094°48'2 4.4
2018-Feb-19 07:00N 29°23' W 094°46'2 3.8
2018-Feb-19 06:28N 29°25' W 094°44'0 0.5
2018-Feb-19 06:00N 29°25' W 094°44'0 0.0
2018-Feb-19 05:30N 29°25' W 094°44'0 0.0
2018-Feb-19 05:00N 29°25' W 094°44'0 0.0
2018-Feb-19 04:30N 29°25' W 094°44'13 1.6
2018-Feb-18 20:50N 29°31' W 094°32'0 0.0
2018-Feb-18 20:03N 29°31' W 094°32'0 0.1
2018-Feb-18 19:59N 29°31' W 094°32'2 2.1
2018-Feb-18 18:52N 29°32' W 094°29'2 5.0
2018-Feb-18 18:28N 29°33' W 094°28'1 1.5
2018-Feb-18 18:00N 29°34' W 094°27'0 0.0
2018-Feb-18 17:29N 29°34' W 094°27'0 0.0
2018-Feb-18 16:56N 29°34' W 094°27'0 0.0
2018-Feb-18 16:30N 29°34' W 094°27'1 3.0
2018-Feb-18 16:00N 29°34' W 094°26'2 3.5
2018-Feb-18 15:30N 29°36' W 094°25'1 1.1
2018-Feb-18 15:00N 29°36' W 094°24'0 0.0
2018-Feb-18 14:30N 29°36' W 094°24'0 0.0
2018-Feb-18 13:59N 29°36' W 094°24'1 1.8
2018-Feb-18 13:25N 29°36' W 094°23'2 3.7
2018-Feb-18 12:58N 29°37' W 094°22'0 0.1
2018-Feb-18 12:30N 29°37' W 094°21'0 0.0
2018-Feb-18 11:58N 29°37' W 094°21'0 0.0
2018-Feb-18 11:30N 29°37' W 094°21'0 0.0
2018-Feb-18 11:00N 29°37' W 094°21'0 0.0
2018-Feb-18 10:30N 29°37' W 094°21'0 0.0
2018-Feb-18 10:00N 29°37' W 094°21'0 0.0
2018-Feb-18 09:29N 29°37' W 094°21'0 0.0
2018-Feb-18 09:01N 29°37' W 094°21'0 0.0
2018-Feb-18 08:30N 29°37' W 094°21'0 0.0
2018-Feb-18 08:00N 29°37' W 094°21'0 0.1
2018-Feb-18 07:30N 29°37' W 094°21'0 0.0
2018-Feb-18 07:00N 29°37' W 094°21'0 0.1
2018-Feb-18 06:30N 29°37' W 094°21'0 0.0
2018-Feb-18 06:00N 29°37' W 094°21'0 0.0
2018-Feb-18 05:26N 29°37' W 094°21'2 2.0
2018-Feb-18 04:25N 29°38' W 094°19'0 0.3
2018-Feb-18 03:20N 29°38' W 094°19'0 0.0
2018-Feb-18 02:56N 29°38' W 094°19'0 0.0
2018-Feb-18 02:29N 29°38' W 094°19'0 0.0
2018-Feb-18 02:00N 29°38' W 094°19'0 0.0
2018-Feb-18 01:28N 29°38' W 094°19'0 0.0
2018-Feb-18 01:00N 29°38' W 094°19'3 4.2
2018-Feb-18 00:21N 29°39' W 094°16'2 5.4
2018-Feb-18 00:00N 29°40' W 094°14'3 5.7
2018-Feb-17 23:31N 29°41' W 094°11'3 5.0
2018-Feb-17 23:00N 29°42' W 094°09'2 4.8
2018-Feb-17 22:30N 29°44' W 094°06'3 5.4
2018-Feb-17 22:00N 29°45' W 094°04'3 5.2
2018-Feb-17 21:30N 29°47' W 094°02'3 5.0
2018-Feb-17 21:01N 29°49' W 093°60'2 4.6
2018-Feb-17 20:30N 29°50' W 093°57'3 5.9
2018-Feb-17 20:00N 29°52' W 093°56'3 7.0
2018-Feb-17 19:30N 29°55' W 093°53'3 6.6
2018-Feb-17 19:00N 29°58' W 093°51'1 2.0
2018-Feb-17 18:30N 29°58' W 093°50'3 5.3
2018-Feb-17 18:00N 29°59' W 093°48'3 5.0
2018-Feb-17 17:29N 30°01' W 093°45'0 0.4
2018-Feb-17 16:59N 30°01' W 093°45'0 0.0
2018-Feb-17 16:29N 30°01' W 093°45'0 0.0
2018-Feb-17 15:56N 30°01' W 093°45'0 0.1
2018-Feb-17 15:29N 30°01' W 093°45'0 0.0
2018-Feb-17 14:56N 30°01' W 093°45'0 0.0
2018-Feb-17 14:29N 30°01' W 093°45'0 0.0
2018-Feb-17 13:59N 30°01' W 093°45'0 0.0
2018-Feb-17 13:29N 30°01' W 093°45'0 0.0
2018-Feb-17 12:59N 30°01' W 093°45'0 0.0
2018-Feb-17 12:29N 30°01' W 093°45'0 0.0
2018-Feb-17 11:59N 30°01' W 093°45'0 0.0
2018-Feb-17 11:29N 30°01' W 093°45'0 0.0
2018-Feb-17 11:01N 30°01' W 093°45'0 0.0
2018-Feb-17 10:30N 30°01' W 093°45'0 0.0
2018-Feb-17 10:01N 30°01' W 093°45'0 0.0
2018-Feb-17 09:30N 30°01' W 093°45'0 0.0
2018-Feb-17 09:00N 30°01' W 093°45'0 0.0
2018-Feb-17 08:30N 30°01' W 093°45'0 0.0
2018-Feb-17 08:00N 30°01' W 093°45'0 0.0
2018-Feb-17 07:30N 30°01' W 093°45'0 0.0
2018-Feb-17 07:01N 30°01' W 093°45'0 0.0
2018-Feb-17 06:30N 30°01' W 093°45'0 0.0
2018-Feb-17 06:01N 30°01' W 093°45'0 0.0
2018-Feb-17 05:30N 30°01' W 093°45'0 0.0
2018-Feb-17 05:00N 30°01' W 093°45'0 0.0
2018-Feb-17 04:30N 30°01' W 093°45'0 0.0
2018-Feb-17 04:01N 30°01' W 093°45'0 0.0
2018-Feb-17 03:31N 30°01' W 093°45'0 0.0
2018-Feb-17 03:00N 30°01' W 093°45'1 1.5
2018-Feb-17 02:30N 30°02' W 093°44'2 4.0
2018-Feb-17 02:00N 30°03' W 093°43'0 0.4
2018-Feb-17 01:28N 30°03' W 093°43'0 0.1
2018-Feb-17 01:00N 30°03' W 093°43'2 3.3
2018-Feb-17 00:29N 30°05' W 093°43'2 3.4
2018-Feb-17 00:00N 30°04' W 093°43'1 2.6
2018-Feb-16 23:31N 30°03' W 093°44'2 4.8
2018-Feb-16 23:01N 30°01' W 093°46'0 0.1
2018-Feb-16 22:30N 30°01' W 093°46'0 0.0
2018-Feb-16 22:00N 30°01' W 093°46'0 0.5
2018-Feb-16 21:30N 30°01' W 093°46'3 5.4
2018-Feb-16 21:00N 30°03' W 093°44'3 5.2
2018-Feb-16 20:30N 30°04' W 093°41'3 5.5
2018-Feb-16 20:00N 30°04' W 093°37'2 4.8
2018-Feb-16 19:30N 30°04' W 093°35'2 4.5
2018-Feb-16 18:59N 30°04' W 093°32'2 4.6
2018-Feb-16 18:30N 30°04' W 093°29'2 4.6
2018-Feb-16 18:00N 30°04' W 093°27'2 4.2
2018-Feb-16 17:30N 30°04' W 093°24'2 4.2
2018-Feb-16 17:00N 30°04' W 093°22'2 3.2
2018-Feb-16 16:30N 30°04' W 093°20'1 2.7
2018-Feb-16 16:00N 30°06' W 093°19'2 3.4
2018-Feb-16 15:30N 30°05' W 093°18'2 4.3
2018-Feb-16 15:00N 30°04' W 093°16'2 3.9
2018-Feb-16 14:30N 30°02' W 093°15'2 3.8
2018-Feb-16 14:00N 30°00' W 093°14'2 4.3
2018-Feb-16 13:30N 29°59' W 093°12'2 3.9
2018-Feb-16 13:00N 29°57' W 093°11'2 4.4
2018-Feb-16 12:30N 29°56' W 093°08'6 2.2
2018-Feb-16 09:41N 29°56' W 093°01'1 4.2
2018-Feb-16 09:23N 29°56' W 092°60'2 4.6
2018-Feb-16 08:54N 29°56' W 092°57'31 4.4
2018-Feb-16 01:51N 29°51' W 092°22'1 3.9
2018-Feb-16 01:30N 29°51' W 092°20'2 3.2
2018-Feb-16 01:00N 29°50' W 092°18'2 3.8
2018-Feb-16 00:30N 29°49' W 092°17'2 4.5
2018-Feb-16 00:00N 29°48' W 092°15'2 4.3
2018-Feb-15 23:30N 29°47' W 092°12'2 3.4
2018-Feb-15 23:00N 29°47' W 092°10'2 4.4
2018-Feb-15 22:30N 29°47' W 092°08'2 4.5
2018-Feb-15 22:00N 29°48' W 092°06'2 4.3
2018-Feb-15 21:30N 29°49' W 092°03'2 4.3
2018-Feb-15 20:59N 29°49' W 092°01'  
Track history (hours):
 
Tides and Currents Weather Stations Pressure Air Temp Water Temp Dewpoint Dewpoint Depression Visibility Wind Speed Wind Dir Waves Ship Positions

M/V R.j. Cheramie

Owner: D&S Marine Service, LLC R.J. Cheramie, Gray, LA. More information available from US FCC via Universal Licensing System and Coast Guard Vessel Documentation Center.

Last reported at 2018-Feb-24 19:59 UTC. Time now 2018-Feb-25 03:53 UTC.
Position N 29°34' W 094°26'.

Length 280 m; draft 2.7 m.

Type: . MMSI: 367528110.

Date/timePositionNaut miles runAvg speedWind from/ knotsBaromVisibWave heightAir tempDewpointWater temp
2018-Feb-24 19:59N 29°34' W 094°26'1 2.8
2018-Feb-24 19:30N 29°34' W 094°25'0 0.0
2018-Feb-24 18:56N 29°34' W 094°25'0 0.0
2018-Feb-24 18:28N 29°34' W 094°25'0 0.0
2018-Feb-24 17:50N 29°34' W 094°25'0 1.0
2018-Feb-24 17:31N 29°35' W 094°25'0 0.0
2018-Feb-24 17:00N 29°35' W 094°25'0 0.0
2018-Feb-24 16:30N 29°35' W 094°25'0 0.0
2018-Feb-24 16:01N 29°35' W 094°25'1 2.5
2018-Feb-24 15:30N 29°36' W 094°24'0 0.0
2018-Feb-24 14:59N 29°36' W 094°24'1 1.5
2018-Feb-24 14:23N 29°36' W 094°23'4 2.6
2018-Feb-24 12:46N 29°38' W 094°19'1 4.7
2018-Feb-24 12:29N 29°38' W 094°18'2 4.5
2018-Feb-24 12:00N 29°39' W 094°15'2 3.9
2018-Feb-24 11:30N 29°40' W 094°13'2 3.6
2018-Feb-24 11:00N 29°41' W 094°11'2 4.3
2018-Feb-24 10:30N 29°42' W 094°09'2 3.2
2018-Feb-24 10:01N 29°43' W 094°08'0 0.9
2018-Feb-24 09:31N 29°43' W 094°07'0 0.0
2018-Feb-24 09:01N 29°43' W 094°07'0 0.0
2018-Feb-24 08:30N 29°43' W 094°07'0 0.0
2018-Feb-24 08:01N 29°43' W 094°07'0 0.8
2018-Feb-24 07:31N 29°43' W 094°07'2 4.7
2018-Feb-24 07:00N 29°45' W 094°05'2 4.7
2018-Feb-24 06:30N 29°46' W 094°03'2 4.8
2018-Feb-24 06:00N 29°48' W 094°01'2 4.6
2018-Feb-24 05:30N 29°49' W 093°59'0 0.4
2018-Feb-24 05:01N 29°49' W 093°58'0 0.0
2018-Feb-24 04:30N 29°49' W 093°58'0 0.0
2018-Feb-24 04:01N 29°49' W 093°58'0 0.0
2018-Feb-24 03:31N 29°49' W 093°58'0 0.0
2018-Feb-24 03:00N 29°49' W 093°58'1 2.6
2018-Feb-24 02:31N 29°50' W 093°57'3 5.8
2018-Feb-24 02:00N 29°53' W 093°56'3 6.0
2018-Feb-24 01:30N 29°55' W 093°53'3 5.9
2018-Feb-24 01:00N 29°57' W 093°52'2 5.0
2018-Feb-24 00:30N 29°59' W 093°49'3 5.7
2018-Feb-24 00:01N 29°60' W 093°46'3 5.3
2018-Feb-23 23:30N 30°02' W 093°44'2 4.8
2018-Feb-23 23:00N 30°03' W 093°42'2 4.8
2018-Feb-23 22:30N 30°04' W 093°39'2 4.8
2018-Feb-23 22:01N 30°04' W 093°37'2 4.8
2018-Feb-23 21:30N 30°04' W 093°34'6 4.9
2018-Feb-23 20:14N 30°04' W 093°26'1 4.6
2018-Feb-23 20:00N 30°04' W 093°25'3 5.1
2018-Feb-23 19:27N 30°04' W 093°22'3 3.6
2018-Feb-23 18:41N 30°05' W 093°20'1 2.9
2018-Feb-23 18:15N 30°06' W 093°18'2 0.7
2018-Feb-23 15:40N 30°05' W 093°17'0 0.0
2018-Feb-23 15:30N 30°05' W 093°17'0 0.0
2018-Feb-23 14:36N 30°05' W 093°17'26 3.3
2018-Feb-23 06:33N 29°58' W 092°47'0 4.6
2018-Feb-23 06:30N 29°58' W 092°47'24 3.3
2018-Feb-22 23:06N 29°51' W 092°20'0 4.3
2018-Feb-22 23:00N 29°50' W 092°20'2 4.1
2018-Feb-22 22:30N 29°50' W 092°18'2 4.3
2018-Feb-22 21:59N 29°48' W 092°15'2 3.8
2018-Feb-22 21:29N 29°48' W 092°13'1 2.1
2018-Feb-22 20:59N 29°47' W 092°12'1 1.9
2018-Feb-22 20:30N 29°47' W 092°11'1 1.3
2018-Feb-22 20:00N 29°47' W 092°11'2 4.6
2018-Feb-22 19:30N 29°47' W 092°08'2 4.1
2018-Feb-22 19:00N 29°48' W 092°06'2 4.2
2018-Feb-22 18:30N 29°49' W 092°04'2 4.4
2018-Feb-22 18:00N 29°49' W 092°01'3 0.8
2018-Feb-22 13:50N 29°50' W 091°57'2 5.2
2018-Feb-22 13:28N 29°50' W 091°60'2 5.0
2018-Feb-22 13:00N 29°49' W 092°02'2 4.9
2018-Feb-22 12:30N 29°48' W 092°05'2 4.9
2018-Feb-22 12:00N 29°47' W 092°07'3 5.2
2018-Feb-22 11:30N 29°47' W 092°10'2 4.9
2018-Feb-22 11:01N 29°47' W 092°13'2 4.4
2018-Feb-22 10:30N 29°48' W 092°15'2 4.9
2018-Feb-22 10:00N 29°49' W 092°18'2 3.9
2018-Feb-22 09:30N 29°50' W 092°20'2 2.8
2018-Feb-22 08:56N 29°51' W 092°21'36 4.3
2018-Feb-22 00:31N 29°56' W 093°03'0 3.7
2018-Feb-22 00:30N 29°56' W 093°03'16 3.7
2018-Feb-21 20:05N 30°06' W 093°18'2 3.0
2018-Feb-21 19:23N 30°05' W 093°20'1 3.3
2018-Feb-21 19:00N 30°04' W 093°21'0 0.3
2018-Feb-21 18:28N 30°04' W 093°21'0 0.6
2018-Feb-21 18:00N 30°04' W 093°22'2 4.5
2018-Feb-21 17:29N 30°04' W 093°24'3 5.2
2018-Feb-21 17:00N 30°04' W 093°27'3 5.1
2018-Feb-21 16:31N 30°04' W 093°30'3 5.3
2018-Feb-21 16:00N 30°04' W 093°33'3 5.4
2018-Feb-21 15:30N 30°04' W 093°36'3 5.8
2018-Feb-21 15:00N 30°04' W 093°40'3 5.9
2018-Feb-21 14:30N 30°03' W 093°43'3 6.0
2018-Feb-21 14:00N 30°01' W 093°45'3 6.0
2018-Feb-21 13:31N 29°59' W 093°48'3 5.7
2018-Feb-21 13:01N 29°58' W 093°51'3 6.6
2018-Feb-21 12:31N 29°55' W 093°53'3 6.6
2018-Feb-21 12:00N 29°53' W 093°55'3 5.5
2018-Feb-21 11:30N 29°50' W 093°57'2 3.7
2018-Feb-21 11:01N 29°49' W 093°59'0 0.0
2018-Feb-21 10:31N 29°49' W 093°59'0 0.0
2018-Feb-21 10:00N 29°49' W 093°59'0 0.0
2018-Feb-21 09:31N 29°49' W 093°59'0 0.0
2018-Feb-21 09:01N 29°49' W 093°59'0 0.0
2018-Feb-21 08:30N 29°49' W 093°59'0 0.0
2018-Feb-21 08:00N 29°49' W 093°59'0 0.0
2018-Feb-21 07:30N 29°49' W 093°59'0 0.0
2018-Feb-21 07:00N 29°49' W 093°59'0 0.0
2018-Feb-21 06:31N 29°49' W 093°59'1 1.4
2018-Feb-21 06:00N 29°49' W 093°59'3 5.1
2018-Feb-21 05:31N 29°47' W 094°01'3 5.0
2018-Feb-21 05:01N 29°45' W 094°04'2 4.6
2018-Feb-21 04:30N 29°44' W 094°06'2 3.9
2018-Feb-21 04:00N 29°43' W 094°08'2 4.4
2018-Feb-21 03:31N 29°41' W 094°09'2 4.5
2018-Feb-21 03:00N 29°41' W 094°12'1 2.6
2018-Feb-21 02:29N 29°40' W 094°13'2 4.3
2018-Feb-21 02:01N 29°39' W 094°15'3 5.3
2018-Feb-21 01:31N 29°38' W 094°18'3 5.4
2018-Feb-21 00:59N 29°37' W 094°21'2 5.1
2018-Feb-21 00:31N 29°36' W 094°24'2 3.6
2018-Feb-20 23:53N 29°34' W 094°25'9 0.9
2018-Feb-20 14:11N 29°30' W 094°34'0 0.0
2018-Feb-20 13:57N 29°30' W 094°34'0 0.0
2018-Feb-20 13:29N 29°30' W 094°34'0 0.0
2018-Feb-20 13:00N 29°30' W 094°34'0 0.1
2018-Feb-20 11:09N 29°30' W 094°34'0 0.0
2018-Feb-20 10:49N 29°30' W 094°34'0 0.0
2018-Feb-20 09:34N 29°30' W 094°34'0 0.0
2018-Feb-20 09:19N 29°30' W 094°34'1 2.7
2018-Feb-20 08:56N 29°29' W 094°35'2 1.7
2018-Feb-20 08:02N 29°29' W 094°37'1 5.7
2018-Feb-20 07:54N 29°29' W 094°37'2 4.5
2018-Feb-20 07:30N 29°28' W 094°39'2 4.3
2018-Feb-20 07:00N 29°27' W 094°41'0 0.1
2018-Feb-20 06:29N 29°27' W 094°41'10 2.0
2018-Feb-20 01:31N 29°30' W 094°52'0 6.1
2018-Feb-20 01:30N 29°30' W 094°52'3 6.3
2018-Feb-20 01:00N 29°33' W 094°54'3 6.4
2018-Feb-20 00:30N 29°35' W 094°56'3 5.5
2018-Feb-20 00:00N 29°38' W 094°58'3 6.9
2018-Feb-19 23:30N 29°41' W 094°59'4 6.0
2018-Feb-19 22:55N 29°44' W 095°02'4 4.7
2018-Feb-19 22:04N 29°47' W 095°04'0 3.6
2018-Feb-19 21:58N 29°47' W 095°04'0 0.2
2018-Feb-19 20:02N 29°47' W 095°04'1 0.4
2018-Feb-19 16:39N 29°46' W 095°06'0 0.0
2018-Feb-19 16:17N 29°46' W 095°06'0 0.0
2018-Feb-19 15:53N 29°46' W 095°06'0 0.0
2018-Feb-19 15:24N 29°46' W 095°06'0 0.0
2018-Feb-19 15:00N 29°46' W 095°06'1 1.3
2018-Feb-19 14:26N 29°46' W 095°05'1 3.0
2018-Feb-19 14:00N 29°47' W 095°04'2 3.3
2018-Feb-19 13:29N 29°46' W 095°05'0 0.1
2018-Feb-19 12:25N 29°46' W 095°05'2 4.9
2018-Feb-19 12:00N 29°45' W 095°04'2 5.0
2018-Feb-19 11:30N 29°43' W 095°01'3 5.3
2018-Feb-19 11:00N 29°41' W 094°59'3 5.8
2018-Feb-19 10:30N 29°39' W 094°58'3 5.7
2018-Feb-19 10:00N 29°36' W 094°57'3 5.8
2018-Feb-19 09:30N 29°33' W 094°55'3 6.1
2018-Feb-19 09:00N 29°31' W 094°53'3 6.1
2018-Feb-19 08:30N 29°28' W 094°51'3 6.1
2018-Feb-19 07:59N 29°25' W 094°50'3 6.1
2018-Feb-19 07:29N 29°23' W 094°48'2 4.4
2018-Feb-19 07:00N 29°23' W 094°46'2 3.8
2018-Feb-19 06:28N 29°25' W 094°44'0 0.5
2018-Feb-19 06:00N 29°25' W 094°44'0 0.0
2018-Feb-19 05:30N 29°25' W 094°44'0 0.0
2018-Feb-19 05:00N 29°25' W 094°44'0 0.0
2018-Feb-19 04:30N 29°25' W 094°44'13 1.6
2018-Feb-18 20:50N 29°31' W 094°32'0 0.0
2018-Feb-18 20:03N 29°31' W 094°32'0 0.1
2018-Feb-18 19:59N 29°31' W 094°32'2 2.1
2018-Feb-18 18:52N 29°32' W 094°29'2 5.0
2018-Feb-18 18:28N 29°33' W 094°28'1 1.5
2018-Feb-18 18:00N 29°34' W 094°27'0 0.0
2018-Feb-18 17:29N 29°34' W 094°27'0 0.0
2018-Feb-18 16:56N 29°34' W 094°27'0 0.0
2018-Feb-18 16:30N 29°34' W 094°27'1 3.0
2018-Feb-18 16:00N 29°34' W 094°26'2 3.5
2018-Feb-18 15:30N 29°36' W 094°25'1 1.1
2018-Feb-18 15:00N 29°36' W 094°24'0 0.0
2018-Feb-18 14:30N 29°36' W 094°24'0 0.0
2018-Feb-18 13:59N 29°36' W 094°24'1 1.8
2018-Feb-18 13:25N 29°36' W 094°23'2 3.7
2018-Feb-18 12:58N 29°37' W 094°22'0 0.1
2018-Feb-18 12:30N 29°37' W 094°21'0 0.0
2018-Feb-18 11:58N 29°37' W 094°21'0 0.0
2018-Feb-18 11:30N 29°37' W 094°21'0 0.0
2018-Feb-18 11:00N 29°37' W 094°21'0 0.0
2018-Feb-18 10:30N 29°37' W 094°21'0 0.0
2018-Feb-18 10:00N 29°37' W 094°21'0 0.0
2018-Feb-18 09:29N 29°37' W 094°21'0 0.0
2018-Feb-18 09:01N 29°37' W 094°21'0 0.0
2018-Feb-18 08:30N 29°37' W 094°21'0 0.0
2018-Feb-18 08:00N 29°37' W 094°21'0 0.1
2018-Feb-18 07:30N 29°37' W 094°21'0 0.0
2018-Feb-18 07:00N 29°37' W 094°21'0 0.1
2018-Feb-18 06:30N 29°37' W 094°21'0 0.0
2018-Feb-18 06:00N 29°37' W 094°21'0 0.0
2018-Feb-18 05:26N 29°37' W 094°21'2 2.0
2018-Feb-18 04:25N 29°38' W 094°19'0 0.3
2018-Feb-18 03:20N 29°38' W 094°19'0 0.0
2018-Feb-18 02:56N 29°38' W 094°19'0 0.0
2018-Feb-18 02:29N 29°38' W 094°19'0 0.0
2018-Feb-18 02:00N 29°38' W 094°19'0 0.0
2018-Feb-18 01:28N 29°38' W 094°19'0 0.0
2018-Feb-18 01:00N 29°38' W 094°19'3 4.2
2018-Feb-18 00:21N 29°39' W 094°16'2 5.4
2018-Feb-18 00:00N 29°40' W 094°14'3 5.7
2018-Feb-17 23:31N 29°41' W 094°11'3 5.0
2018-Feb-17 23:00N 29°42' W 094°09'2 4.8
2018-Feb-17 22:30N 29°44' W 094°06'3 5.4
2018-Feb-17 22:00N 29°45' W 094°04'3 5.2
2018-Feb-17 21:30N 29°47' W 094°02'3 5.0
2018-Feb-17 21:01N 29°49' W 093°60'2 4.6
2018-Feb-17 20:30N 29°50' W 093°57'3 5.9
2018-Feb-17 20:00N 29°52' W 093°56'3 7.0
2018-Feb-17 19:30N 29°55' W 093°53'3 6.6
2018-Feb-17 19:00N 29°58' W 093°51'1 2.0
2018-Feb-17 18:30N 29°58' W 093°50'3 5.3
2018-Feb-17 18:00N 29°59' W 093°48'3 5.0
2018-Feb-17 17:29N 30°01' W 093°45'0 0.4
2018-Feb-17 16:59N 30°01' W 093°45'0 0.0
2018-Feb-17 16:29N 30°01' W 093°45'0 0.0
2018-Feb-17 15:56N 30°01' W 093°45'0 0.1
2018-Feb-17 15:29N 30°01' W 093°45'0 0.0
2018-Feb-17 14:56N 30°01' W 093°45'0 0.0
2018-Feb-17 14:29N 30°01' W 093°45'0 0.0
2018-Feb-17 13:59N 30°01' W 093°45'0 0.0
2018-Feb-17 13:29N 30°01' W 093°45'0 0.0
2018-Feb-17 12:59N 30°01' W 093°45'0 0.0
2018-Feb-17 12:29N 30°01' W 093°45'0 0.0
2018-Feb-17 11:59N 30°01' W 093°45'0 0.0
2018-Feb-17 11:29N 30°01' W 093°45'0 0.0
2018-Feb-17 11:01N 30°01' W 093°45'0 0.0
2018-Feb-17 10:30N 30°01' W 093°45'0 0.0
2018-Feb-17 10:01N 30°01' W 093°45'0 0.0
2018-Feb-17 09:30N 30°01' W 093°45'0 0.0
2018-Feb-17 09:00N 30°01' W 093°45'0 0.0
2018-Feb-17 08:30N 30°01' W 093°45'0 0.0
2018-Feb-17 08:00N 30°01' W 093°45'0 0.0
2018-Feb-17 07:30N 30°01' W 093°45'0 0.0
2018-Feb-17 07:01N 30°01' W 093°45'0 0.0
2018-Feb-17 06:30N 30°01' W 093°45'0 0.0
2018-Feb-17 06:01N 30°01' W 093°45'0 0.0
2018-Feb-17 05:30N 30°01' W 093°45'0 0.0
2018-Feb-17 05:00N 30°01' W 093°45'0 0.0
2018-Feb-17 04:30N 30°01' W 093°45'0 0.0
2018-Feb-17 04:01N 30°01' W 093°45'0 0.0
2018-Feb-17 03:31N 30°01' W 093°45'0 0.0
2018-Feb-17 03:00N 30°01' W 093°45'1 1.5
2018-Feb-17 02:30N 30°02' W 093°44'2 4.0
2018-Feb-17 02:00N 30°03' W 093°43'0 0.4
2018-Feb-17 01:28N 30°03' W 093°43'0 0.1
2018-Feb-17 01:00N 30°03' W 093°43'2 3.3
2018-Feb-17 00:29N 30°05' W 093°43'2 3.4
2018-Feb-17 00:00N 30°04' W 093°43'1 2.6
2018-Feb-16 23:31N 30°03' W 093°44'2 4.8
2018-Feb-16 23:01N 30°01' W 093°46'0 0.1
2018-Feb-16 22:30N 30°01' W 093°46'0 0.0
2018-Feb-16 22:00N 30°01' W 093°46'0 0.5
2018-Feb-16 21:30N 30°01' W 093°46'3 5.4
2018-Feb-16 21:00N 30°03' W 093°44'3 5.2
2018-Feb-16 20:30N 30°04' W 093°41'3 5.5
2018-Feb-16 20:00N 30°04' W 093°37'2 4.8
2018-Feb-16 19:30N 30°04' W 093°35'2 4.5
2018-Feb-16 18:59N 30°04' W 093°32'2 4.6
2018-Feb-16 18:30N 30°04' W 093°29'2 4.6
2018-Feb-16 18:00N 30°04' W 093°27'2 4.2
2018-Feb-16 17:30N 30°04' W 093°24'2 4.2
2018-Feb-16 17:00N 30°04' W 093°22'2 3.2
2018-Feb-16 16:30N 30°04' W 093°20'1 2.7
2018-Feb-16 16:00N 30°06' W 093°19'2 3.4
2018-Feb-16 15:30N 30°05' W 093°18'2 4.3
2018-Feb-16 15:00N 30°04' W 093°16'2 3.9
2018-Feb-16 14:30N 30°02' W 093°15'2 3.8
2018-Feb-16 14:00N 30°00' W 093°14'2 4.3
2018-Feb-16 13:30N 29°59' W 093°12'2 3.9
2018-Feb-16 13:00N 29°57' W 093°11'2 4.4
2018-Feb-16 12:30N 29°56' W 093°08'6 2.2
2018-Feb-16 09:41N 29°56' W 093°01'1 4.2
2018-Feb-16 09:23N 29°56' W 092°60'2 4.6
2018-Feb-16 08:54N 29°56' W 092°57'31 4.4
2018-Feb-16 01:51N 29°51' W 092°22'1 3.9
2018-Feb-16 01:30N 29°51' W 092°20'2 3.2
2018-Feb-16 01:00N 29°50' W 092°18'2 3.8
2018-Feb-16 00:30N 29°49' W 092°17'2 4.5
2018-Feb-16 00:00N 29°48' W 092°15'2 4.3
2018-Feb-15 23:30N 29°47' W 092°12'2 3.4
2018-Feb-15 23:00N 29°47' W 092°10'2 4.4
2018-Feb-15 22:30N 29°47' W 092°08'2 4.5
2018-Feb-15 22:00N 29°48' W 092°06'2 4.3
2018-Feb-15 21:30N 29°49' W 092°03'2 4.3
2018-Feb-15 20:59N 29°49' W 092°01'  

Dump ship's entire track history